Time;durP1;ratioP1;P1;durP2;ratioP2;P2;SDS_P1;SDS_P2;PMS_P1;PMS_P2;Temp;Humidity;BMP_temperature;BMP_pressure;BME280_temperature;BME280_humidity;BME280_pressure;Samples;Min_cycle;Max_cycle;Signal;HPM_P1;HPM_P2
2023/09/02 00:02:00;;;;;;;9.67;4.77;;;;;;;15.40;76.31;100273.75;4210609;28;22372;-69
2023/09/02 00:04:28;;;;;;;10.50;5.37;;;;;;;15.40;76.54;100271.03;4216581;28;21139;-67
2023/09/02 00:06:54;;;;;;;10.10;5.00;;;;;;;15.34;77.29;100267.16;4222449;28;22914;-68
2023/09/02 00:09:21;;;;;;;15.60;5.60;;;;;;;15.33;77.57;100270.06;4207974;28;20237;-68
2023/09/02 00:11:48;;;;;;;12.43;5.20;;;;;;;15.30;78.06;100264.97;4219234;28;20555;-67
2023/09/02 00:14:14;;;;;;;7.83;4.47;;;;;;;15.22;78.33;100274.06;4213937;28;20235;-68
2023/09/02 00:16:41;;;;;;;11.53;5.03;;;;;;;15.27;78.18;100270.81;4222841;28;20280;-68
2023/09/02 00:19:07;;;;;;;11.73;5.60;;;;;;;15.44;77.12;100279.69;4221802;28;20246;-69
2023/09/02 00:21:34;;;;;;;12.80;5.70;;;;;;;15.30;77.33;100279.47;4224290;28;20228;-68
2023/09/02 00:24:07;;;;;;;11.67;5.30;;;;;;;15.23;77.82;100278.50;4215741;28;20235;-68
2023/09/02 00:26:34;;;;;;;12.47;4.73;;;;;;;15.17;78.45;100280.06;4229514;28;20232;-69
2023/09/02 00:29:01;;;;;;;8.33;4.87;;;;;;;15.14;78.69;100283.19;4228746;28;21793;-67
2023/09/02 00:31:28;;;;;;;12.17;5.73;;;;;;;15.19;78.68;100277.16;4215602;28;23561;-70
2023/09/02 00:33:55;;;;;;;10.53;5.10;;;;;;;15.19;79.13;100285.34;4223494;28;21294;-67
2023/09/02 00:36:22;;;;;;;11.53;4.93;;;;;;;15.23;79.01;100280.38;4211519;28;20860;-68
2023/09/02 00:38:48;;;;;;;10.40;5.53;;;;;;;15.16;79.30;100281.09;4202960;28;21049;-67
2023/09/02 00:41:24;;;;;;;8.53;4.90;;;;;;;15.09;79.80;100285.56;4217644;28;20223;-67
2023/09/02 00:43:53;;;;;;;7.60;4.50;;;;;;;15.05;80.31;100282.38;4213268;28;20439;-67
2023/09/02 00:46:20;;;;;;;16.53;5.23;;;;;;;15.07;80.50;100278.63;4216540;28;20229;-67
2023/09/02 00:48:47;;;;;;;11.43;5.67;;;;;;;15.11;80.52;100286.25;4231990;28;20236;-67
2023/09/02 00:51:13;;;;;;;13.63;5.60;;;;;;;15.16;80.57;100274.81;4224310;28;20227;-66
2023/09/02 00:53:40;;;;;;;16.53;5.87;;;;;;;15.27;79.47;100270.81;4221380;28;20231;-67
2023/09/02 00:56:07;;;;;;;14.77;5.80;;;;;;;15.24;79.83;100276.63;4215334;28;20734;-67
2023/09/02 00:58:34;;;;;;;16.13;6.43;;;;;;;15.19;79.96;100279.88;4219790;28;21180;-66
2023/09/02 01:01:03;;;;;;;13.33;5.67;;;;;;;15.31;78.47;100274.84;4225460;28;20227;-68
2023/09/02 01:03:29;;;;;;;13.17;5.27;;;;;;;15.29;78.23;100276.94;4210319;28;22580;-68
2023/09/02 01:05:56;;;;;;;16.97;5.70;;;;;;;15.27;78.09;100284.44;4222752;28;21158;-67
2023/09/02 01:08:23;;;;;;;11.43;5.53;;;;;;;15.32;77.36;100282.88;4217829;28;20237;-67
2023/09/02 01:10:49;;;;;;;13.87;5.60;;;;;;;15.23;77.77;100272.19;4207593;28;20238;-68
2023/09/02 01:13:16;;;;;;;11.63;5.40;;;;;;;15.24;77.90;100277.47;4218029;28;20699;-67
2023/09/02 01:15:43;;;;;;;10.77;4.40;;;;;;;15.23;77.84;100283.97;4248315;28;20292;-68
2023/09/02 01:18:09;;;;;;;10.80;5.13;;;;;;;15.33;76.99;100289.16;4227257;28;20302;-69
2023/09/02 01:21:11;;;;;;;7.63;4.37;;;;;;;15.23;77.53;100283.97;4216149;28;20607;-69
2023/09/02 01:24:15;;;;;;;10.67;5.40;;;;;;;15.38;77.37;100286.72;4234403;28;20235;-66
2023/09/02 01:27:12;;;;;;;8.07;4.77;;;;;;;15.24;78.04;100290.25;4227016;28;21138;-68
2023/09/02 01:29:47;;;;;;;11.10;4.77;;;;;;;15.19;78.60;100291.66;4230254;28;21723;-68
2023/09/02 01:32:14;;;;;;;9.00;4.87;;;;;;;15.23;78.79;100289.41;4223078;28;20424;-67
2023/09/02 01:34:42;;;;;;;8.70;5.00;;;;;;;15.17;79.26;100296.44;4220423;28;20600;-66
2023/09/02 01:37:08;;;;;;;15.20;5.10;;;;;;;15.20;79.89;100304.25;4220558;28;22582;-67
2023/09/02 01:39:37;;;;;;;6.97;4.73;;;;;;;15.17;80.41;100301.06;4228108;28;26405;-67
2023/09/02 01:42:05;;;;;;;14.70;5.03;;;;;;;15.12;81.57;100300.72;4221993;28;22305;-68
2023/09/02 01:44:32;;;;;;;11.50;5.63;;;;;;;15.14;81.94;100298.66;4218450;28;21471;-67
2023/09/02 01:47:01;;;;;;;11.47;5.47;;;;;;;15.25;81.57;100292.81;4206543;28;26405;-67
2023/09/02 01:49:28;;;;;;;14.07;5.30;;;;;;;15.28;80.40;100291.59;4228880;28;20235;-70
2023/09/02 01:51:56;;;;;;;11.43;5.63;;;;;;;15.58;77.39;100286.25;4221665;28;21754;-67
2023/09/02 01:54:22;;;;;;;13.63;5.43;;;;;;;15.45;77.12;100286.84;4211709;28;20239;-67
2023/09/02 01:56:49;;;;;;;9.13;4.97;;;;;;;15.30;77.89;100294.97;4220077;28;20240;-68
2023/09/02 01:59:16;;;;;;;11.73;5.87;;;;;;;15.20;78.23;100282.44;4215607;28;20237;-68
2023/09/02 02:01:42;;;;;;;14.73;6.70;;;;;;;15.15;78.80;100289.47;4219546;28;20228;-67
2023/09/02 02:04:19;;;;;;;9.50;5.30;;;;;;;15.07;79.48;100286.78;4214476;28;22042;-66
2023/09/02 02:06:46;;;;;;;11.67;5.67;;;;;;;15.05;80.09;100292.44;4219402;28;20587;-67
2023/09/02 02:09:21;;;;;;;10.33;5.50;;;;;;;14.94;80.72;100284.66;4220352;28;20244;-67
2023/09/02 02:11:49;;;;;;;10.17;5.13;;;;;;;14.87;81.10;100290.81;4224338;28;21705;-68
2023/09/02 02:14:16;;;;;;;15.50;6.10;;;;;;;14.94;80.55;100282.78;4215146;28;22152;-69
2023/09/02 02:16:42;;;;;;;14.10;5.93;;;;;;;14.72;82.17;100292.63;4226353;28;20667;-66
2023/09/02 02:19:09;;;;;;;11.53;5.60;;;;;;;14.67;82.10;100286.84;4215836;28;20239;-69
2023/09/02 02:21:36;;;;;;;11.93;5.50;;;;;;;14.73;81.70;100288.88;4219183;28;21786;-70
2023/09/02 02:24:02;;;;;;;9.03;4.67;;;;;;;14.72;82.08;100288.03;4216737;28;20243;-68
2023/09/02 02:26:29;;;;;;;10.23;5.03;;;;;;;14.61;82.70;100296.56;4225235;28;20682;-67
2023/09/02 02:28:56;;;;;;;12.87;5.80;;;;;;;14.50;83.33;100297.78;4222575;28;21282;-68
2023/09/02 02:31:22;;;;;;;14.03;6.33;;;;;;;14.61;83.23;100302.00;4222251;28;20228;-69
2023/09/02 02:33:49;;;;;;;9.50;5.20;;;;;;;14.68;83.21;100307.63;4233517;28;22981;-66
2023/09/02 02:36:16;;;;;;;9.33;5.03;;;;;;;14.54;83.67;100293.69;4217310;28;21164;-67
2023/09/02 02:38:42;;;;;;;10.67;5.47;;;;;;;14.43;84.24;100299.53;4223297;28;20244;-67
2023/09/02 02:41:09;;;;;;;10.33;5.27;;;;;;;14.39;84.56;100284.53;4219461;28;21228;-69
2023/09/02 02:43:35;;;;;;;11.77;5.90;;;;;;;14.44;84.61;100293.06;4211947;28;20228;-68
2023/09/02 02:46:02;;;;;;;13.27;5.70;;;;;;;14.49;84.33;100292.53;4226067;28;20601;-67
2023/09/02 02:48:32;;;;;;;14.83;5.63;;;;;;;14.40;84.95;100286.25;4221518;28;22217;-68
2023/09/02 02:50:59;;;;;;;12.47;5.43;;;;;;;14.31;85.22;100288.16;4209286;28;20627;-67
2023/09/02 02:53:26;;;;;;;17.20;6.23;;;;;;;14.33;85.75;100297.00;4214965;28;21391;-67
2023/09/02 02:55:53;;;;;;;12.53;5.57;;;;;;;14.31;85.92;100298.22;4219957;28;20364;-67
2023/09/02 02:58:19;;;;;;;11.43;5.87;;;;;;;14.25;86.07;100303.31;4209255;28;20276;-68
2023/09/02 03:00:50;;;;;;;13.43;5.93;;;;;;;14.31;85.85;100306.38;4211052;28;22715;-70
2023/09/02 03:03:16;;;;;;;15.23;5.73;;;;;;;14.47;85.47;100303.59;4204317;28;20281;-67
2023/09/02 03:05:43;;;;;;;13.70;6.73;;;;;;;14.50;84.48;100294.25;4219850;28;20231;-67
2023/09/02 03:08:10;;;;;;;11.37;6.10;;;;;;;14.42;84.50;100298.69;4209598;28;22994;-67
2023/09/02 03:10:37;;;;;;;14.43;6.13;;;;;;;14.31;85.27;100299.06;4222517;28;22882;-67
2023/09/02 03:13:05;;;;;;;16.50;6.30;;;;;;;14.63;83.72;100299.97;4241841;28;20298;-67
2023/09/02 03:15:31;;;;;;;21.73;6.57;;;;;;;14.48;83.70;100299.00;4213155;28;20224;-66
2023/09/02 03:17:58;;;;;;;11.03;5.47;;;;;;;14.26;84.48;100296.03;4216912;28;20232;-67
2023/09/02 03:20:27;;;;;;;14.60;6.27;;;;;;;14.10;85.38;100296.91;4203146;28;20246;-67
2023/09/02 03:22:54;;;;;;;13.67;6.40;;;;;;;14.01;85.96;100298.81;4208415;28;20234;-68
2023/09/02 03:25:20;;;;;;;14.40;5.97;;;;;;;14.00;86.40;100304.44;4220312;28;20472;-69
2023/09/02 03:27:47;;;;;;;17.10;7.57;;;;;;;13.93;86.61;100298.81;4216411;28;20302;-66
2023/09/02 03:30:13;;;;;;;11.90;6.50;;;;;;;13.78;87.11;100296.78;4216424;28;20362;-67
2023/09/02 03:32:40;;;;;;;12.53;6.70;;;;;;;13.76;87.50;100295.28;4215586;28;20524;-68
2023/09/02 03:35:07;;;;;;;11.27;6.40;;;;;;;13.72;87.53;100292.06;4213389;28;20510;-66
2023/09/02 03:37:34;;;;;;;18.20;6.80;;;;;;;13.70;87.74;100294.09;4217399;28;20614;-67
2023/09/02 03:40:03;;;;;;;14.63;7.33;;;;;;;13.68;87.85;100298.00;4215256;28;20244;-67
2023/09/02 03:42:30;;;;;;;18.30;9.47;;;;;;;13.62;88.23;100297.66;4204614;28;20350;-68
2023/09/02 03:44:57;;;;;;;16.40;8.47;;;;;;;13.59;88.28;100295.28;4218731;28;20235;-68
2023/09/02 03:47:23;;;;;;;14.10;7.33;;;;;;;13.60;88.20;100301.56;4211337;28;21036;-69
2023/09/02 03:49:51;;;;;;;16.03;7.20;;;;;;;13.56;88.44;100286.63;4206728;28;20227;-68
2023/09/02 03:52:17;;;;;;;14.07;7.37;;;;;;;13.41;89.30;100297.31;4216142;28;25584;-68
2023/09/02 03:54:44;;;;;;;13.90;7.07;;;;;;;13.61;88.70;100295.97;4223156;28;20241;-69
2023/09/02 03:57:11;;;;;;;13.47;6.60;;;;;;;13.72;87.60;100297.50;4227393;28;20973;-68
2023/09/02 03:59:37;;;;;;;16.47;6.67;;;;;;;13.63;88.05;100296.63;4220867;28;22886;-66
2023/09/02 04:02:04;;;;;;;12.83;7.13;;;;;;;13.56;88.32;100297.50;4231074;28;20231;-69
2023/09/02 04:04:31;;;;;;;15.03;6.63;;;;;;;13.47;88.36;100281.19;4210462;28;20248;-67
2023/09/02 04:06:57;;;;;;;12.97;6.70;;;;;;;13.53;88.33;100295.09;4245799;28;20326;-67
2023/09/02 04:09:24;;;;;;;12.93;7.27;;;;;;;13.66;88.02;100295.47;4247928;28;20236;-69
2023/09/02 04:11:52;;;;;;;19.37;7.33;;;;;;;13.95;86.87;100300.34;4236149;28;20241;-67
2023/09/02 04:14:18;;;;;;;12.67;7.00;;;;;;;14.03;86.17;100302.22;4230570;28;20315;-68
2023/09/02 04:16:45;;;;;;;15.93;6.57;;;;;;;14.10;85.62;100308.66;4227271;28;20243;-67
2023/09/02 04:19:12;;;;;;;15.03;7.10;;;;;;;14.02;85.71;100297.78;4229800;28;20273;-67
2023/09/02 04:21:39;;;;;;;10.57;6.20;;;;;;;13.95;86.35;100303.06;4238183;28;21083;-67
2023/09/02 04:24:06;;;;;;;13.13;6.50;;;;;;;13.88;86.73;100303.94;4245717;28;21604;-69
2023/09/02 04:26:33;;;;;;;10.67;6.23;;;;;;;13.88;87.03;100309.38;4236227;28;21084;-69
2023/09/02 04:29:00;;;;;;;16.47;7.90;;;;;;;13.86;86.85;100311.41;4225466;28;20259;-67
2023/09/02 04:31:27;;;;;;;15.67;7.47;;;;;;;13.89;87.16;100317.34;4235423;28;20235;-68
2023/09/02 04:33:56;;;;;;;16.07;8.10;;;;;;;13.89;87.03;100317.34;4244580;28;20539;-67
2023/09/02 04:36:23;;;;;;;16.00;7.53;;;;;;;13.86;87.41;100314.97;4236980;28;20248;-67
2023/09/02 04:38:52;;;;;;;14.03;6.93;;;;;;;14.21;85.83;100317.47;4230281;28;20310;-69
2023/09/02 04:41:19;;;;;;;20.23;7.73;;;;;;;14.45;84.18;100311.09;4242033;28;20282;-70
2023/09/02 04:43:45;;;;;;;20.87;8.47;;;;;;;14.61;83.04;100320.25;4231918;28;20423;-68
2023/09/02 04:46:12;;;;;;;14.53;6.70;;;;;;;14.55;82.92;100321.78;4202381;28;21296;-68
2023/09/02 04:48:38;;;;;;;15.80;6.73;;;;;;;14.65;82.66;100327.00;4234929;28;21279;-67
2023/09/02 04:51:07;;;;;;;16.23;7.30;;;;;;;14.63;82.94;100331.78;4231273;28;20241;-67
2023/09/02 04:53:34;;;;;;;11.77;6.20;;;;;;;14.52;83.23;100330.28;4229879;28;25425;-69
2023/09/02 04:56:04;;;;;;;15.07;6.70;;;;;;;14.66;82.75;100334.19;4229291;28;20232;-66
2023/09/02 04:58:31;;;;;;;14.63;7.20;;;;;;;14.78;81.75;100335.50;4226752;28;20232;-68
2023/09/02 05:01:08;;;;;;;14.37;6.70;;;;;;;14.88;81.07;100338.00;4225509;28;20241;-68
2023/09/02 05:03:35;;;;;;;17.97;6.93;;;;;;;14.87;81.38;100333.59;4226295;28;20264;-69
2023/09/02 05:06:02;;;;;;;14.10;6.80;;;;;;;14.89;80.69;100335.13;4223205;28;20598;-69
2023/09/02 05:08:33;;;;;;;17.87;7.17;;;;;;;14.99;79.86;100348.50;4259352;28;20232;-67
2023/09/02 05:11:00;;;;;;;19.57;6.83;;;;;;;14.93;80.05;100351.09;4234350;28;20232;-67
2023/09/02 05:13:27;;;;;;;16.00;8.33;;;;;;;15.01;79.98;100354.66;4224057;28;20268;-68
2023/09/02 05:15:53;;;;;;;12.80;6.80;;;;;;;15.06;80.32;100356.84;4248674;28;20290;-68
2023/09/02 05:18:20;;;;;;;18.53;7.93;;;;;;;15.02;80.92;100364.53;4225005;28;20312;-69
2023/09/02 05:20:47;;;;;;;14.80;6.83;;;;;;;15.07;81.22;100358.50;4245094;28;20542;-69
2023/09/02 05:23:14;;;;;;;13.47;6.60;;;;;;;15.10;81.56;100366.34;4230247;28;20502;-68
2023/09/02 05:25:41;;;;;;;10.50;6.47;;;;;;;15.16;81.74;100357.44;4226861;28;20232;-68
2023/09/02 05:28:08;;;;;;;21.50;8.17;;;;;;;15.29;80.84;100370.50;4244503;28;20370;-68
2023/09/02 05:30:35;;;;;;;15.60;7.40;;;;;;;15.35;80.35;100358.03;4226655;28;21977;-68
2023/09/02 05:33:02;;;;;;;15.07;7.40;;;;;;;15.53;79.05;100368.63;4217070;28;20240;-69
2023/09/02 05:35:30;;;;;;;18.80;8.03;;;;;;;15.45;79.72;100371.41;4220477;28;20610;-67
2023/09/02 05:37:57;;;;;;;15.53;7.77;;;;;;;15.45;79.69;100371.41;4222598;28;20239;-67
2023/09/02 05:40:24;;;;;;;22.70;8.40;;;;;;;15.12;81.48;100374.34;4224872;28;25392;-68
2023/09/02 05:42:53;;;;;;;19.90;8.23;;;;;;;14.89;82.76;100381.44;4235950;28;20230;-68
2023/09/02 05:45:20;;;;;;;18.70;8.03;;;;;;;14.98;83.02;100379.53;4220091;28;20256;-69
2023/09/02 05:47:46;;;;;;;15.40;7.67;;;;;;;15.29;81.92;100375.13;4226328;28;20237;-70
2023/09/02 05:50:13;;;;;;;17.10;8.90;;;;;;;15.27;82.13;100380.72;4218379;28;20243;-68
2023/09/02 05:52:40;;;;;;;17.70;8.30;;;;;;;15.40;81.83;100380.13;4234450;28;21153;-68
2023/09/02 05:55:07;;;;;;;19.00;9.37;;;;;;;15.55;80.94;100377.50;4224941;28;21076;-67
2023/09/02 05:57:33;;;;;;;17.77;7.67;;;;;;;15.77;80.19;100374.94;4234650;28;21973;-68
2023/09/02 06:00:03;;;;;;;15.50;7.73;;;;;;;15.94;79.55;100386.59;4225174;28;21954;-67
2023/09/02 06:02:34;;;;;;;17.97;8.53;;;;;;;16.04;78.93;100389.06;4227218;28;20282;-68
2023/09/02 06:05:02;;;;;;;13.93;8.57;;;;;;;15.64;80.84;100383.72;4216184;28;20236;-70
2023/09/02 06:07:28;;;;;;;16.40;8.43;;;;;;;15.68;81.15;100393.25;4224483;28;23008;-68
2023/09/02 06:09:55;;;;;;;21.97;8.30;;;;;;;15.68;80.74;100387.78;4231352;28;22007;-68
2023/09/02 06:12:21;;;;;;;19.07;8.23;;;;;;;15.77;80.12;100386.69;4225311;28;26069;-68
2023/09/02 06:14:48;;;;;;;15.43;8.10;;;;;;;15.64;80.59;100392.75;4210467;28;20286;-70
2023/09/02 06:17:15;;;;;;;20.23;8.23;;;;;;;15.83;80.42;100396.91;4222610;28;20776;-67
2023/09/02 06:19:41;;;;;;;17.33;8.70;;;;;;;15.99;79.44;100403.25;4225218;28;20262;-68
2023/09/02 06:22:08;;;;;;;15.87;7.73;;;;;;;16.01;80.21;100401.19;4211341;28;20239;-68
2023/09/02 06:24:35;;;;;;;17.43;7.30;;;;;;;16.13;80.03;100402.44;4227922;28;20351;-68
2023/09/02 06:27:03;;;;;;;14.37;7.53;;;;;;;16.56;78.80;100406.47;4230357;28;20229;-68
2023/09/02 06:29:33;;;;;;;21.30;8.07;;;;;;;16.58;77.74;100398.91;4234831;28;20239;-68
2023/09/02 06:32:00;;;;;;;19.03;7.37;;;;;;;16.43;77.33;100415.31;4223121;28;20609;-70
2023/09/02 06:34:30;;;;;;;11.53;6.50;;;;;;;16.71;76.51;100420.13;4229094;28;20259;-66
2023/09/02 06:36:56;;;;;;;12.23;6.37;;;;;;;16.85;74.38;100416.53;4232926;28;22241;-68
2023/09/02 06:39:23;;;;;;;12.20;6.40;;;;;;;16.80;74.85;100416.28;4228457;28;20224;-67
2023/09/02 06:41:50;;;;;;;16.20;7.00;;;;;;;17.16;74.33;100418.25;4211360;28;20236;-66
2023/09/02 06:44:19;;;;;;;14.10;6.43;;;;;;;17.40;73.60;100413.47;4226755;28;21910;-66
2023/09/02 06:46:47;;;;;;;12.53;6.30;;;;;;;17.45;71.32;100416.47;4228507;28;20930;-66
2023/09/02 06:49:14;;;;;;;11.83;5.80;;;;;;;17.99;68.94;100417.06;4227829;28;20236;-65
2023/09/02 06:51:40;;;;;;;15.73;6.50;;;;;;;18.28;68.32;100417.94;4236898;28;21680;-66
2023/09/02 06:54:07;;;;;;;17.33;6.80;;;;;;;18.98;67.95;100424.34;4219357;28;20539;-68
2023/09/02 06:56:34;;;;;;;15.33;6.23;;;;;;;21.31;59.00;100422.94;4237083;28;20605;-66
2023/09/02 06:59:01;;;;;;;11.17;5.47;;;;;;;23.29;51.06;100418.13;4245514;28;20955;-68
2023/09/02 07:01:27;;;;;;;11.23;4.30;;;;;;;25.39;47.30;100421.59;4285933;28;20416;-67
2023/09/02 07:03:58;;;;;;;10.57;4.30;;;;;;;25.54;45.97;100425.75;4375053;28;20230;-68
2023/09/02 07:06:27;;;;;;;7.23;3.73;;;;;;;26.51;41.53;100414.72;4271953;28;20270;-71
2023/09/02 07:08:54;;;;;;;12.40;4.53;;;;;;;27.27;39.88;100433.53;4250758;28;21042;-72
2023/09/02 07:11:20;;;;;;;8.90;4.13;;;;;;;28.42;37.82;100428.00;4250957;28;20232;-71
2023/09/02 07:13:47;;;;;;;16.25;7.35;;;;;;;29.40;35.89;100426.66;4282739;28;20229;-68
2023/09/02 07:16:15;;;;;;;8.32;4.25;;;;;;;31.01;32.96;100435.88;4238836;28;20227;-70
2023/09/02 07:18:42;;;;;;;8.00;3.60;;;;;;;31.42;31.10;100437.69;4246608;28;20231;-74
2023/09/02 07:21:10;;;;;;;8.68;3.92;;;;;;;31.55;30.91;100444.63;4247492;28;20326;-71
2023/09/02 07:23:36;;;;;;;7.63;3.70;;;;;;;31.84;30.70;100443.91;4257273;28;20234;-72
2023/09/02 07:26:04;;;;;;;20.48;12.23;;;;;;;31.00;31.92;100442.59;4255097;28;20245;-70
2023/09/02 07:28:32;;;;;;;19.20;3.83;;;;;;;31.33;30.69;100448.66;4272091;28;20229;-71
2023/09/02 07:31:01;;;;;;;6.57;3.63;;;;;;;31.30;30.90;100446.44;4265103;28;20364;-72
2023/09/02 07:33:29;;;;;;;5.25;3.22;;;;;;;30.04;32.27;100454.44;4293543;28;20413;-52
2023/09/02 07:35:57;;;;;;;7.25;3.22;;;;;;;33.04;28.44;100451.00;4291372;28;21559;-69
2023/09/02 07:38:26;;;;;;;4.90;3.03;;;;;;;28.89;34.51;100451.50;4294274;28;21058;-69
2023/09/02 07:40:53;;;;;;;9.60;3.78;;;;;;;29.13;33.73;100457.47;4261131;28;20233;-68
2023/09/02 07:43:20;;;;;;;9.48;3.33;;;;;;;29.18;34.31;100471.41;4239114;28;20441;-69
2023/09/02 07:45:48;;;;;;;22.08;3.97;;;;;;;31.60;30.35;100470.63;4236194;28;20659;-69
2023/09/02 07:48:15;;;;;;;22.50;8.38;;;;;;;32.85;28.07;100465.78;4238662;28;20235;-70
2023/09/02 07:50:42;;;;;;;9.98;4.50;;;;;;;33.46;26.67;100479.41;4220613;28;20232;-69
2023/09/02 07:53:08;;;;;;;11.18;3.20;;;;;;;30.44;31.12;100479.84;4227721;28;20231;-72
2023/09/02 07:55:36;;;;;;;6.13;2.60;;;;;;;31.35;30.35;100476.34;4246142;28;20231;-68
2023/09/02 07:58:03;;;;;;;7.80;2.72;;;;;;;30.29;31.80;100478.72;4233650;28;20239;-72
2023/09/02 08:00:33;;;;;;;8.57;3.15;;;;;;;29.86;31.61;100472.50;4256638;28;20231;-73
2023/09/02 08:02:59;;;;;;;9.00;2.88;;;;;;;31.86;28.23;100480.88;4239131;28;20234;-71
2023/09/02 08:05:26;;;;;;;5.38;2.45;;;;;;;33.20;26.82;100478.84;4248859;28;20310;-71
2023/09/02 08:07:53;;;;;;;6.47;2.53;;;;;;;31.52;28.77;100473.16;4226812;28;20239;-79
2023/09/02 08:10:20;;;;;;;7.18;2.78;;;;;;;30.04;30.04;100488.75;4237907;28;22134;-75
2023/09/02 08:12:47;;;;;;;6.05;2.75;;;;;;;28.43;33.69;100483.47;4306705;28;20236;-75
2023/09/02 08:15:15;;;;;;;6.45;2.47;;;;;;;26.30;36.87;100492.06;4302961;28;22896;-74
2023/09/02 08:17:43;;;;;;;9.77;2.78;;;;;;;24.91;39.46;100486.47;4254007;28;20251;-73
2023/09/02 08:20:10;;;;;;;5.53;2.40;;;;;;;25.11;39.22;100492.47;4212966;28;20341;-73
2023/09/02 08:22:39;;;;;;;4.60;2.80;;;;;;;25.12;39.51;100483.09;4245041;28;20246;-79
2023/09/02 08:25:06;;;;;;;7.63;2.70;;;;;;;23.99;41.47;100485.84;4248582;28;20232;-75
2023/09/02 08:27:33;;;;;;;5.63;1.97;;;;;;;24.34;41.58;100482.31;4232483;28;20568;-74
2023/09/02 08:30:01;;;;;;;4.03;2.13;;;;;;;23.81;41.40;100495.84;4242851;28;21394;-74
2023/09/02 08:32:32;;;;;;;6.67;2.20;;;;;;;24.03;41.26;100493.44;4257445;28;20236;-72
2023/09/02 08:34:59;;;;;;;6.07;2.10;;;;;;;24.62;41.19;100489.94;4241755;28;20326;-75
2023/09/02 08:37:27;;;;;;;6.10;2.30;;;;;;;25.09;39.85;100489.09;4239017;28;20366;-76
2023/09/02 08:39:53;;;;;;;6.30;2.20;;;;;;;24.45;42.30;100495.34;4225889;28;20945;-74
2023/09/02 08:42:20;;;;;;;4.57;2.50;;;;;;;24.45;42.08;100492.56;4229293;28;21112;-72
2023/09/02 08:44:48;;;;;;;4.17;2.20;;;;;;;24.78;41.43;100493.94;4234549;28;20239;-73
2023/09/02 08:47:16;;;;;;;5.67;2.33;;;;;;;24.27;41.42;100504.56;4231011;28;20231;-69
2023/09/02 08:49:43;;;;;;;4.03;1.93;;;;;;;24.09;42.11;100502.72;4249451;28;20232;-71
2023/09/02 08:52:10;;;;;;;8.27;2.20;;;;;;;24.21;41.82;100506.38;4233951;28;20458;-69
2023/09/02 08:54:37;;;;;;;4.27;2.00;;;;;;;24.08;42.23;100514.00;4241922;28;20231;-70
2023/09/02 08:57:05;;;;;;;5.33;2.00;;;;;;;23.03;43.15;100514.00;4226896;28;20288;-71
2023/09/02 08:59:32;;;;;;;5.30;2.90;;;;;;;24.02;41.02;100515.78;4233905;28;20240;-72
2023/09/02 09:01:59;;;;;;;4.67;1.80;;;;;;;24.58;40.15;100508.13;4231436;28;20232;-70
2023/09/02 09:04:32;;;;;;;6.07;2.17;;;;;;;24.30;39.99;100508.78;4234126;28;22954;-71
2023/09/02 09:07:03;;;;;;;8.00;2.30;;;;;;;24.10;40.89;100515.44;4243064;28;20228;-72
2023/09/02 09:09:31;;;;;;;5.17;2.07;;;;;;;23.36;43.52;100516.41;4220031;28;20238;-71
2023/09/02 09:12:01;;;;;;;5.77;2.27;;;;;;;23.40;42.54;100516.81;4230722;28;20244;-71
2023/09/02 09:14:31;;;;;;;3.90;1.90;;;;;;;23.44;41.67;100514.41;4210064;28;21065;-72
2023/09/02 09:16:58;;;;;;;5.13;2.20;;;;;;;23.16;42.19;100529.56;4231536;28;20233;-70
2023/09/02 09:19:29;;;;;;;6.90;1.80;;;;;;;22.60;44.34;100519.25;4224722;28;23006;-66
2023/09/02 09:21:57;;;;;;;7.93;2.20;;;;;;;22.55;45.26;100515.47;4221209;28;20251;-68
2023/09/02 09:24:23;;;;;;;5.33;2.10;;;;;;;22.43;45.25;100521.75;4222627;28;20236;-68
2023/09/02 09:26:51;;;;;;;6.00;2.10;;;;;;;22.54;45.09;100522.91;4229633;28;20236;-70
2023/09/02 09:29:20;;;;;;;4.57;1.80;;;;;;;22.23;45.79;100529.28;4240352;28;20248;-70
2023/09/02 09:31:49;;;;;;;5.03;2.30;;;;;;;22.57;45.41;100529.91;4246062;28;20300;-67
2023/09/02 09:34:15;;;;;;;12.30;2.57;;;;;;;22.96;45.07;100522.34;4228199;28;20427;-68
2023/09/02 09:36:44;;;;;;;6.13;2.37;;;;;;;22.63;45.78;100523.47;4228123;28;20337;-69
2023/09/02 09:39:11;;;;;;;5.27;2.30;;;;;;;22.30;45.66;100530.09;4223204;28;20235;-73
2023/09/02 09:41:45;;;;;;;4.60;1.93;;;;;;;22.30;45.22;100527.31;4234429;28;22070;-69
2023/09/02 09:44:13;;;;;;;4.00;1.90;;;;;;;22.69;44.88;100524.50;4224203;28;20594;-68
2023/09/02 09:46:51;;;;;;;8.93;2.23;;;;;;;22.27;45.54;100544.31;4233740;28;20240;-68
2023/09/02 09:49:22;;;;;;;10.17;2.30;;;;;;;22.42;45.35;100530.25;4223907;28;20620;-71
2023/09/02 09:52:08;;;;;;;6.00;2.30;;;;;;;22.22;46.83;100533.94;4229471;28;20290;-68
2023/09/02 09:54:39;;;;;;;5.33;2.17;;;;;;;22.46;45.97;100537.84;4242453;28;21227;-67
2023/09/02 09:57:07;;;;;;;6.03;2.27;;;;;;;22.59;44.33;100536.03;4230883;28;20243;-70
2023/09/02 09:59:34;;;;;;;4.30;2.07;;;;;;;22.33;46.15;100537.91;4236638;28;21306;-69
2023/09/02 10:02:04;;;;;;;4.93;2.23;;;;;;;21.79;45.88;100548.41;4242234;28;20234;-70
2023/09/02 10:04:32;;;;;;;4.63;2.30;;;;;;;22.17;46.43;100551.16;4225300;28;22568;-69
2023/09/02 10:07:03;;;;;;;4.60;2.27;;;;;;;22.48;45.42;100540.38;4226682;28;20654;-69
2023/09/02 10:09:41;;;;;;;6.43;2.50;;;;;;;22.35;45.69;100541.28;4235765;28;20776;-71
2023/09/02 10:12:15;;;;;;;4.57;2.00;;;;;;;22.72;45.00;100546.97;4232945;28;21338;-69
2023/09/02 10:14:44;;;;;;;4.37;2.37;;;;;;;22.78;45.17;100540.53;4224119;28;21082;-71
2023/09/02 10:17:10;;;;;;;14.00;2.30;;;;;;;22.59;45.40;100545.16;4218329;28;20237;-69
2023/09/02 10:19:37;;;;;;;4.17;2.10;;;;;;;22.76;45.64;100544.59;4214234;28;22208;-72
2023/09/02 10:22:04;;;;;;;6.40;2.30;;;;;;;22.88;44.46;100539.19;4226270;28;20972;-74
2023/09/02 10:24:38;;;;;;;4.23;1.77;;;;;;;23.21;45.00;100543.56;4218555;28;20309;-46
2023/09/02 10:27:12;;;;;;;3.47;1.93;;;;;;;22.90;44.66;100556.38;4220202;28;20441;-70
2023/09/02 10:29:45;;;;;;;5.80;2.33;;;;;;;22.99;44.29;100548.63;4235667;28;20596;-71
2023/09/02 10:32:12;;;;;;;31.17;2.50;;;;;;;22.70;46.00;100549.09;4224007;28;21638;-52
2023/09/02 10:34:58;;;;;;;6.20;2.47;;;;;;;22.89;44.86;100550.00;4231550;28;20297;-46
2023/09/02 10:37:28;;;;;;;4.40;2.10;;;;;;;23.39;43.76;100568.44;4229171;28;26096;-70
2023/09/02 10:40:04;;;;;;;6.43;2.27;;;;;;;23.23;43.67;100556.06;4213258;28;20236;-71
2023/09/02 10:42:31;;;;;;;5.37;2.30;;;;;;;23.68;42.28;100538.31;4228546;28;20232;-70
2023/09/02 10:45:00;;;;;;;5.60;2.77;;;;;;;23.30;44.37;100544.94;4224963;28;20388;-72
2023/09/02 10:47:27;;;;;;;5.17;2.10;;;;;;;22.87;45.94;100556.81;4221519;28;21991;-68
2023/09/02 10:49:54;;;;;;;3.33;1.80;;;;;;;22.91;45.00;100558.06;4254835;28;21757;-71
2023/09/02 10:52:21;;;;;;;5.63;2.10;;;;;;;22.81;46.22;100557.72;4226798;28;20299;-69
2023/09/02 10:55:04;;;;;;;3.77;1.93;;;;;;;22.82;44.58;100563.00;4216377;28;22298;-70
2023/09/02 10:57:32;;;;;;;6.87;2.40;;;;;;;22.96;45.17;100566.50;4215899;28;21545;-69
2023/09/02 11:00:31;;;;;;;6.00;2.37;;;;;;;22.71;45.75;100569.28;4216350;28;20543;-69
2023/09/02 11:02:58;;;;;;;3.20;1.67;;;;;;;23.03;45.07;100571.97;4223744;28;20240;-69
2023/09/02 11:05:27;;;;;;;8.43;2.10;;;;;;;22.84;45.28;100571.91;4227125;28;20235;-68
2023/09/02 11:07:55;;;;;;;8.37;2.40;;;;;;;22.65;47.11;100565.50;4221220;28;20236;-70
2023/09/02 11:10:22;;;;;;;6.77;1.87;;;;;;;23.04;45.12;100574.50;4246001;28;20331;-68
2023/09/02 11:13:00;;;;;;;6.40;1.90;;;;;;;23.00;45.60;100572.41;4201286;28;20326;-67
2023/09/02 11:15:28;;;;;;;4.80;2.00;;;;;;;22.78;46.79;100572.81;4211281;28;22114;-67
2023/09/02 11:17:55;;;;;;;4.70;1.80;;;;;;;22.81;45.77;100572.34;4222657;28;20236;-68
2023/09/02 11:20:26;;;;;;;7.80;1.90;;;;;;;22.97;43.91;100565.44;4218866;28;20237;-69
2023/09/02 11:23:04;;;;;;;5.17;2.13;;;;;;;22.76;44.83;100572.19;4220341;28;20243;-69
2023/09/02 11:25:37;;;;;;;5.80;2.13;;;;;;;22.68;45.50;100567.81;4207601;28;20653;-68